createdAt,value
2023-03-03T00:03:30.516Z,23.70
2023-03-03T00:07:46.382Z,19.08
2023-03-03T00:12:26.663Z,18.15
2023-03-03T00:16:39.515Z,15.60
2023-03-03T00:21:01.345Z,15.57
2023-03-03T00:25:34.609Z,7.57
2023-03-03T00:29:51.434Z,6.90
2023-03-03T00:34:20.369Z,6.78
2023-03-03T00:38:37.168Z,4.68
2023-03-03T00:42:55.502Z,5.22
2023-03-03T00:47:31.595Z,4.28
2023-03-03T00:51:44.776Z,2.30
2023-03-03T00:55:58.627Z,3.65
2023-03-03T01:00:15.819Z,2.40
2023-03-03T01:04:31.935Z,2.15
2023-03-03T01:08:46.462Z,2.20
2023-03-03T01:12:59.021Z,4.53
2023-03-03T01:17:11.404Z,3.22
2023-03-03T01:21:25.078Z,2.83
2023-03-03T01:25:37.687Z,3.50
2023-03-03T01:29:50.693Z,4.88
2023-03-03T01:34:04.378Z,2.13
2023-03-03T01:38:18.943Z,5.75
2023-03-03T01:42:31.914Z,5.38
2023-03-03T01:47:19.460Z,4.82
2023-03-03T01:51:37.228Z,5.43
2023-03-03T01:55:51.974Z,4.63
2023-03-03T02:00:06.526Z,5.00
2023-03-03T02:04:26.931Z,5.65
2023-03-03T02:08:59.504Z,4.65
2023-03-03T02:13:11.940Z,3.85
2023-03-03T02:17:25.003Z,3.92
2023-03-03T02:21:37.391Z,4.05
2023-03-03T02:26:00.580Z,7.53
2023-03-03T02:30:20.417Z,6.05
2023-03-03T02:34:46.173Z,3.97
2023-03-03T02:39:18.625Z,3.72
2023-03-03T02:43:42.774Z,5.43
2023-03-03T02:47:55.849Z,5.10
2023-03-03T02:52:10.550Z,4.60
2023-03-03T02:56:25.761Z,5.00
2023-03-03T03:00:38.215Z,9.45
2023-03-03T03:04:50.624Z,3.53
2023-03-03T03:09:09.094Z,6.75
2023-03-03T03:13:21.504Z,5.93
2023-03-03T03:17:34.651Z,4.18
2023-03-03T03:21:47.208Z,7.53
2023-03-03T03:26:00.545Z,4.60
2023-03-03T03:30:17.702Z,5.35
2023-03-03T03:34:30.326Z,7.38
2023-03-03T03:38:43.634Z,8.23
2023-03-03T03:42:56.899Z,3.03
2023-03-03T03:47:09.577Z,4.93
2023-03-03T03:51:22.692Z,5.35
2023-03-03T03:55:35.405Z,6.80
2023-03-03T03:59:50.582Z,6.63
2023-03-03T04:04:04.616Z,6.97
2023-03-03T04:08:17.452Z,7.43
2023-03-03T04:12:36.568Z,6.18
2023-03-03T04:16:49.047Z,7.43
2023-03-03T04:21:02.797Z,9.30
2023-03-03T04:25:17.515Z,6.22
2023-03-03T04:29:33.999Z,9.60
2023-03-03T04:33:49.017Z,7.32
2023-03-03T04:38:02.200Z,4.50
2023-03-03T04:42:15.772Z,6.90
2023-03-03T04:46:28.944Z,6.68
2023-03-03T04:50:43.760Z,7.80
2023-03-03T04:54:56.173Z,5.85
2023-03-03T04:59:08.777Z,7.22
2023-03-03T05:03:22.027Z,5.95
2023-03-03T05:07:35.723Z,6.68
2023-03-03T05:11:51.944Z,5.05
2023-03-03T05:16:04.766Z,6.72
2023-03-03T05:20:17.353Z,5.32
2023-03-03T05:24:29.943Z,6.88
2023-03-03T05:28:42.318Z,9.07
2023-03-03T05:32:54.822Z,5.10
2023-03-03T05:37:07.260Z,8.10
2023-03-03T05:41:19.676Z,4.40
2023-03-03T05:45:32.125Z,8.32
2023-03-03T05:49:44.480Z,4.60
2023-03-03T05:53:56.791Z,6.20
2023-03-03T05:58:09.175Z,6.80
2023-03-03T06:02:21.752Z,8.57
2023-03-03T06:06:34.296Z,8.60
2023-03-03T06:10:46.781Z,7.50
2023-03-03T06:15:00.425Z,6.68
2023-03-03T06:19:12.808Z,9.60
2023-03-03T06:23:25.409Z,6.07
2023-03-03T06:27:37.829Z,8.43
2023-03-03T06:31:50.205Z,9.85
2023-03-03T06:36:05.363Z,8.30
2023-03-03T06:40:18.508Z,8.25
2023-03-03T06:44:30.913Z,11.48
2023-03-03T06:48:43.269Z,8.02
2023-03-03T06:53:16.705Z,6.70
2023-03-03T06:57:32.157Z,9.95
2023-03-03T07:01:47.059Z,7.95
2023-03-03T07:05:59.456Z,9.18
2023-03-03T07:10:29.789Z,7.90
2023-03-03T07:14:45.063Z,11.40
2023-03-03T07:19:05.751Z,13.57
2023-03-03T07:23:20.844Z,11.13
2023-03-03T07:27:33.368Z,9.52
2023-03-03T07:31:50.464Z,5.70
2023-03-03T07:36:04.528Z,8.77
2023-03-03T07:40:35.757Z,6.88
2023-03-03T07:44:50.963Z,7.53
2023-03-03T07:49:16.735Z,12.23
2023-03-03T07:53:35.096Z,9.15
2023-03-03T07:57:47.567Z,10.10
2023-03-03T08:02:00.944Z,10.57
2023-03-03T08:06:42.288Z,11.63
2023-03-03T08:10:59.675Z,14.65
2023-03-03T08:15:19.973Z,11.07
2023-03-03T08:19:32.611Z,15.38
2023-03-03T08:23:45.274Z,11.35
2023-03-03T08:27:58.306Z,14.52
2023-03-03T08:32:10.750Z,18.00
2023-03-03T08:36:23.249Z,10.80
2023-03-03T08:40:36.671Z,9.07
2023-03-03T08:44:49.127Z,9.60
2023-03-03T08:49:01.479Z,8.85
2023-03-03T08:53:14.840Z,12.27
2023-03-03T08:57:27.197Z,9.73
2023-03-03T09:01:39.585Z,12.40
2023-03-03T09:05:52.017Z,9.90
2023-03-03T09:10:05.235Z,13.13
2023-03-03T09:14:19.291Z,10.07
2023-03-03T09:18:38.372Z,12.55
2023-03-03T09:22:51.501Z,12.55
2023-03-03T09:27:32.052Z,10.18
2023-03-03T09:36:35.892Z,7.35
2023-03-03T09:41:21.815Z,12.27
2023-03-03T09:45:40.371Z,36.72
2023-03-03T09:50:07.256Z,11.63
2023-03-03T09:54:34.590Z,11.52
2023-03-03T09:59:11.102Z,15.13
2023-03-03T10:03:48.020Z,6.93
2023-03-03T10:08:21.709Z,12.77
2023-03-03T10:12:54.406Z,12.52
2023-03-03T10:17:21.741Z,10.70
2023-03-03T10:21:46.345Z,15.88
2023-03-03T10:26:08.813Z,7.35
2023-03-03T10:31:10.180Z,11.57
2023-03-03T10:35:41.869Z,10.25
2023-03-03T10:40:28.708Z,13.05
2023-03-03T10:45:03.102Z,9.65
2023-03-03T10:49:35.226Z,8.55
2023-03-03T10:54:30.772Z,11.93
2023-03-03T10:58:46.802Z,11.68
2023-03-03T11:03:36.921Z,18.00
2023-03-03T11:08:06.625Z,12.15
2023-03-03T11:12:47.848Z,11.32
2023-03-03T11:17:21.276Z,13.57
2023-03-03T11:21:48.101Z,13.88
2023-03-03T11:26:07.754Z,12.82
2023-03-03T11:30:59.271Z,10.13
2023-03-03T11:35:40.801Z,9.65
2023-03-03T11:39:58.154Z,10.55
2023-03-03T11:44:18.625Z,9.57
2023-03-03T11:48:55.061Z,7.03
2023-03-03T11:53:24.934Z,9.05
2023-03-03T11:57:48.598Z,10.07
2023-03-03T12:02:24.111Z,11.02
2023-03-03T12:06:51.893Z,12.07
2023-03-03T12:11:13.149Z,13.30
2023-03-03T12:15:55.728Z,13.35
2023-03-03T12:20:42.872Z,11.70
2023-03-03T12:25:19.378Z,11.63
2023-03-03T12:29:41.783Z,13.75
2023-03-03T12:34:19.596Z,15.50
2023-03-03T12:38:50.046Z,9.10
2023-03-03T12:43:38.734Z,11.27
2023-03-03T12:47:58.975Z,9.20
2023-03-03T12:52:18.988Z,11.05
2023-03-03T13:01:28.643Z,9.73
2023-03-03T13:05:59.177Z,9.07
2023-03-03T13:10:30.308Z,13.88
2023-03-03T13:15:31.740Z,9.23
2023-03-03T13:20:00.348Z,10.18
2023-03-03T13:24:24.368Z,11.98
2023-03-03T13:28:52.144Z,17.02
2023-03-03T13:33:22.983Z,12.02
2023-03-03T13:37:52.997Z,11.43
2023-03-03T13:42:19.065Z,8.52
2023-03-03T13:47:00.267Z,9.45
2023-03-03T13:51:48.561Z,8.98
2023-03-03T13:56:21.127Z,10.20
2023-03-03T14:00:39.458Z,11.23
2023-03-03T14:04:59.224Z,8.93
2023-03-03T14:09:27.467Z,8.15
2023-03-03T14:14:12.255Z,8.15
2023-03-03T14:18:39.493Z,9.52
2023-03-03T14:23:10.151Z,7.43
2023-03-03T14:27:33.628Z,8.35
2023-03-03T14:31:46.382Z,9.40
2023-03-03T14:35:58.801Z,6.10
2023-03-03T14:40:23.182Z,8.98
2023-03-03T14:44:53.993Z,6.28
2023-03-03T14:49:28.106Z,8.23
2023-03-03T14:53:45.030Z,7.93
2023-03-03T14:57:58.373Z,7.63
2023-03-03T15:02:16.912Z,7.13
2023-03-03T15:06:36.764Z,9.80
2023-03-03T15:15:09.480Z,8.15
2023-03-03T15:19:55.677Z,7.05
2023-03-03T15:24:16.415Z,11.02
2023-03-03T15:28:56.586Z,8.05
2023-03-03T15:33:30.936Z,10.40
2023-03-03T15:37:54.616Z,9.10
2023-03-03T15:42:27.521Z,17.95
2023-03-03T15:46:50.730Z,14.75
2023-03-03T15:51:28.780Z,17.70
2023-03-03T15:56:03.174Z,15.45
2023-03-03T16:00:35.954Z,11.45
2023-03-03T16:04:55.430Z,12.15
2023-03-03T16:10:03.306Z,20.55
2023-03-03T16:14:47.906Z,20.50
2023-03-03T16:19:24.354Z,21.95
2023-03-03T16:23:52.602Z,21.17
2023-03-03T16:28:24.800Z,20.83
2023-03-03T16:32:43.054Z,25.65
2023-03-03T16:37:14.972Z,27.70
2023-03-03T16:41:51.821Z,23.27
2023-03-03T16:46:32.179Z,23.35
2023-03-03T16:51:10.491Z,22.35
2023-03-03T16:55:45.772Z,23.95
2023-03-03T17:00:09.889Z,23.85
2023-03-03T17:05:05.561Z,23.65
2023-03-03T17:09:40.331Z,18.02
2023-03-03T17:14:06.971Z,27.25
2023-03-03T17:18:58.030Z,24.13
2023-03-03T17:23:47.732Z,25.05
2023-03-03T17:28:17.709Z,26.02
2023-03-03T17:32:37.409Z,41.38
2023-03-03T17:37:28.371Z,28.33
2023-03-03T17:42:01.627Z,44.30
2023-03-03T17:46:42.146Z,35.78
2023-03-03T17:51:16.421Z,49.13
2023-03-03T17:55:49.835Z,39.47
2023-03-03T18:00:19.185Z,30.52
2023-03-03T18:05:04.160Z,32.60
2023-03-03T18:09:46.406Z,28.58
2023-03-03T18:14:21.851Z,25.08
2023-03-03T18:19:07.672Z,22.67
2023-03-03T18:23:44.779Z,27.92
2023-03-03T18:27:59.803Z,24.52
2023-03-03T18:32:22.079Z,21.05
2023-03-03T18:36:34.487Z,24.55
2023-03-03T18:41:09.735Z,27.98
2023-03-03T18:45:25.964Z,29.92
2023-03-03T18:49:57.200Z,30.65
2023-03-03T18:54:12.953Z,33.38
2023-03-03T18:58:36.289Z,33.60
2023-03-03T19:02:56.670Z,33.22
2023-03-03T19:07:17.134Z,31.42
2023-03-03T19:11:36.984Z,29.48
2023-03-03T19:15:55.619Z,29.25
2023-03-03T19:20:15.593Z,26.77
2023-03-03T19:29:08.185Z,26.52
2023-03-03T19:33:26.965Z,26.00
2023-03-03T19:37:51.630Z,26.33
2023-03-03T19:43:00.800Z,24.95
2023-03-03T19:47:22.072Z,38.28
2023-03-03T19:51:53.238Z,26.60
2023-03-03T19:56:23.542Z,25.55
2023-03-03T20:00:42.630Z,16.98
2023-03-03T20:05:16.473Z,25.57
2023-03-03T20:09:47.513Z,19.50
2023-03-03T20:14:38.325Z,23.55
2023-03-03T20:19:09.750Z,20.73
2023-03-03T20:23:30.715Z,21.92
2023-03-03T20:28:06.180Z,21.30
2023-03-03T20:33:08.537Z,18.98
2023-03-03T20:38:06.178Z,26.52
2023-03-03T20:42:33.519Z,18.40
2023-03-03T20:47:10.147Z,15.82
2023-03-03T20:51:43.073Z,15.80
2023-03-03T20:56:20.439Z,14.15
2023-03-03T21:00:51.486Z,13.70
2023-03-03T21:05:13.602Z,19.83
2023-03-03T21:09:32.256Z,18.38
2023-03-03T21:13:57.309Z,17.40
2023-03-03T21:18:25.466Z,19.38
2023-03-03T21:22:37.940Z,18.80
2023-03-03T21:26:57.674Z,19.48
2023-03-03T21:31:17.876Z,17.23
2023-03-03T21:35:30.299Z,13.52
2023-03-03T21:39:44.516Z,15.75
2023-03-03T21:43:57.049Z,16.95
2023-03-03T21:48:10.456Z,20.60
2023-03-03T21:52:23.272Z,14.50
2023-03-03T21:56:38.368Z,13.85
2023-03-03T22:00:50.810Z,14.38
2023-03-03T22:05:07.847Z,16.98
2023-03-03T22:09:20.539Z,11.23
2023-03-03T22:13:32.945Z,15.40
2023-03-03T22:17:45.615Z,11.77
2023-03-03T22:21:58.008Z,16.58
2023-03-03T22:26:10.409Z,13.55
2023-03-03T22:30:22.784Z,17.83
2023-03-03T22:34:35.170Z,16.15
2023-03-03T22:38:48.242Z,12.68
2023-03-03T22:43:00.975Z,13.45
2023-03-03T22:47:13.357Z,12.75
2023-03-03T22:51:28.855Z,17.92
2023-03-03T22:55:41.374Z,21.00
2023-03-03T22:59:53.810Z,15.15
2023-03-03T23:04:06.255Z,11.93
2023-03-03T23:08:21.597Z,13.55
2023-03-03T23:12:34.032Z,14.15
2023-03-03T23:16:47.602Z,13.57
2023-03-03T23:20:59.984Z,11.85
2023-03-03T23:25:12.548Z,10.60
2023-03-03T23:29:25.221Z,9.32
2023-03-03T23:33:37.567Z,12.40
2023-03-03T23:37:50.155Z,16.50
2023-03-03T23:42:02.630Z,18.90
2023-03-03T23:46:15.563Z,12.25
2023-03-03T23:50:28.102Z,16.25
2023-03-03T23:54:40.473Z,11.88
2023-03-03T23:58:52.855Z,10.27
